Tiempo atmosférico en la estación meteorológica de Cenicero, La Rioja (429 m.)



Fecha
DESCASC
Temp. máxima en grados centígrados (hora)
DESCASC
Temp. mínima en grados centígrados (hora)
DESCASC
Temp. media en grados centígrados
DESCASC
Racha de viento máxima en m/sg (hora)
DESCASC
Velocidad máxima media en intervalos de 10 minutos(hora)
DESCASC
Precipitaciones diarias en mm
DESCASC
Precipitaciones de 00:00 a 06:00 en mm
DESCASC
Precipitaciones de 06:00 a 12:00 en mm
DESCASC
Precipitaciones de 12:00 a 18:00 en mm
DESCASC
Precipitaciones de 18:00 a 24:00 en mm
DESCASC
10-05-2019 25.7 (18:40) 12.8 (00:00) 19.3 13.61 (17:50) 6.67 (19:00) 0 0 0 0 0
23-05-2019 23.9 (18:50) 10.8 (06:50) 17.3 8.89 (21:10) 5 (21:10) 4.8 0 0 0 4.8
22-05-2019 26.9 (17:50) 6.5 (07:00) 16.7 6.94 (17:20) 4.17 (17:10) 0 0 0 0 0
21-05-2019 22.6 (16:30) 6.7 (07:00) 14.7 7.22 (15:50) 3.61 (19:20) 0 0 0 0 0
20-05-2019 20.6 (17:40) 5.4 (07:00) 13 6.11 (18:10) 2.78 (17:50) 0 0 0 0 0
19-05-2019 14.3 (17:40) 8.9 (00:00) 11.6 10.28 (12:30) 5.56 (12:30) 0.2 0.2 0 0 0
17-05-2019 12.9 (18:30) 9.1 (00:00) 11 13.61 (11:10) 7.22 (09:30) 12.2 12.2 0 0 0
16-05-2019 24.6 (17:50) 10.2 (00:00) 17.4 8.61 (23:59) 5 (12:20) 9 0 0 0 9
15-05-2019 28.7 (15:40) 10.1 (00:00) 19.4 7.22 (11:30) 3.89 (18:30) 0 0 0 0 0
14-05-2019 29.5 (18:20) 5.5 (00:00) 17.5 6.67 (00:50) 3.61 (01:00) 0 0 0 0 0
13-05-2019 24.4 (15:20) 7.9 (00:00) 16.1 8.61 (16:50) 4.44 (16:30) 0 0 0 0 0
12-05-2019 23.6 (17:20) 6.5 (00:00) 15.1 8.89 (17:30) 5 (17:30) 0 0 0 0 0
11-05-2019 19.6 (16:00) 10.6 (00:00) 15.1 8.89 (17:00) 4.44 (18:20) 0 0 0 0 0
26-04-2019 18.8 (16:40) 8.7 (00:00) 13.7 12.5 (01:30) 6.67 (09:10) 0 0 0 0 0
09-05-2019 17.8 (12:50) 10.1 (00:00) 13.9 12.78 (02:30) 6.94 (02:10) 0 0 0 0 0
08-05-2019 22.3 (13:30) 14.5 (00:00) 18.4 20.28 (14:40) 10.83 (14:50) 0 0 0 0 0
07-05-2019 23 (16:40) 8.8 (00:00) 15.9 5.56 (13:10) 3.06 (11:00) 0 0 0 0 0
06-05-2019 25.2 (17:30) 1.3 (00:00) 13.3 5.83 (22:00) 3.33 (18:00) 0 0 0 0 0
05-05-2019 17.7 (17:40) 3.8 (00:00) 10.8 8.33 (00:10) 4.44 (00:10) 0 0 0 0 0
04-05-2019 17 (16:30) 6.6 (00:00) 11.8 11.11 (21:20) 6.11 (21:20) 0 0 0 0 0
03-05-2019 12.5 (17:10) 7.2 (00:00) 9.8 7.78 (17:40) 5 (08:20) 2.2 0 2 0 0.2
02-05-2019 18.4 (17:20) 9.4 (06:00) 13.9 7.78 (19:40) 3.89 (17:50) 0 0 0 0 0
01-05-2019 24.7 (16:40) 6.1 (00:00) 15.4 8.61 (16:50) 4.44 (17:30) 0 0 0 0 0
30-04-2019 24.3 (16:10) 8.3 (00:00) 16.3 7.5 (16:10) 3.61 (16:10) 0 0 0 0 0
29-04-2019 25.8 (17:20) 6.4 (00:00) 16.1 6.11 (17:40) 3.89 (17:40) 0 0 0 0 0
28-04-2019 23 (18:00) 7.3 (00:00) 15.2 6.39 (14:40) 3.33 (10:20) 0 0 0 0 0
27-04-2019 20.8 (16:20) 5.2 (00:00) 13 7.22 (13:30) 4.17 (12:10) 0 0 0 0 0
18-05-2019 13.7 (14:40) 6.3 (00:00) 10 8.89 (11:20) 5.56 (12:10) 0.6 0 0 0.2 0.4

Gráficas

Temp. máximas Temp. mínimas Temp. medias Precipitaciones Rachas de viento máximas Velocidades máximas media en intervalos de 10 minutos

Datos horarios

Fecha y hora oficial Temperatura (ºC) Velocidad del viento (km/h) Dirección del viento Racha (km/h) Dirección de racha Precipitación (mm) Presión (hPa) Tendencia (hPa) Humedad (%)
2019-05-25 23:00:00 12.1 4 Noroeste 23 Norte 0 -- -- 77
2019-05-25 22:00:00 12.8 8 Noroeste 17 Noroeste 0 -- -- 74
2019-05-25 21:00:00 13.8 6 Norte 20 Noroeste 0 -- -- 73
2019-05-25 20:00:00 14.8 9 Noroeste 18 Noroeste 0 -- -- 69
2019-05-25 19:00:00 14.8 13 Noroeste 27 Noroeste 0 -- -- 70
2019-05-25 18:00:00 15.2 14 Noroeste 29 Oeste 0 -- -- 70
2019-05-25 17:00:00 15.8 12 Noroeste 26 Noroeste 0 -- -- 69
2019-05-25 16:00:00 15.7 17 Noroeste 29 Noroeste 0 -- -- 67
2019-05-25 15:00:00 16.4 14 Noroeste 28 Noroeste 0 -- -- 67
2019-05-25 14:00:00 14.9 12 Noroeste 27 Oeste 0 -- -- 71
2019-05-25 13:00:00 13.3 14 Noroeste 28 Oeste 0 -- -- 80
2019-05-25 12:00:00 13.6 12 Noroeste 28 Oeste 0 -- -- 75
2019-05-25 11:00:00 13.1 13 Oeste 24 Oeste 0 -- -- 76
2019-05-25 10:00:00 12.5 16 Oeste 27 Sudoeste 0 -- -- 78
2019-05-25 09:00:00 11.8 15 Oeste 27 Oeste 0 -- -- 80
2019-05-25 08:00:00 11.5 15 Oeste 31 Oeste 0 -- -- 79
2019-05-25 07:00:00 11.5 14 Oeste 22 Oeste 0 -- -- 80
2019-05-25 06:00:00 11.5 11 Oeste 26 Oeste 0 -- -- 78
2019-05-25 05:00:00 11.5 13 Oeste 27 Sudoeste 0 -- -- 82
2019-05-25 04:00:00 11.8 14 Oeste 28 Oeste 0 -- -- 85
2019-05-25 03:00:00 11.8 9 Oeste 32 Noroeste 0 -- -- 85
2019-05-25 02:00:00 11.6 7 Oeste 19 Noroeste 0 -- -- 88
2019-05-25 01:00:00 11.9 8 Noroeste 22 Noroeste 0.2 -- -- 84
2019-05-25 00:00:00 12 12 Noroeste 24 Noroeste 0 -- -- 82
2019-05-24 23:00:00 12.4 10 Noroeste 20 Noroeste 0 -- -- 81
2019-05-24 22:00:00 12.6 12 Oeste 24 Oeste 0 -- -- 80
2019-05-24 21:00:00 12.7 6 Oeste 23 Oeste 0 -- -- 80
2019-05-24 20:00:00 13.2 13 Noroeste 23 Noroeste 0 -- -- 77
2019-05-24 19:00:00 14 13 Noroeste 29 Norte 0 -- -- 71
2019-05-24 18:00:00 14.4 13 Noroeste 26 Noroeste 0 -- -- 70
2019-05-24 17:00:00 14.2 15 Noroeste 34 Noroeste 0 -- -- 72
2019-05-24 16:00:00 15.8 12 Noroeste 28 Noroeste 0 -- -- 67
2019-05-24 15:00:00 14.5 13 Noroeste 32 Noroeste 0 -- -- 71
2019-05-24 14:00:00 14.2 13 Noroeste 28 Noroeste 0 -- -- 70
2019-05-24 13:00:00 14 9 Noroeste 20 Noroeste 0 -- -- 73
2019-05-24 12:00:00 13.9 15 Noroeste 28 Oeste 0 -- -- 74
2019-05-24 11:00:00 12.6 10 Noroeste 26 Oeste 0 -- -- 80
2019-05-24 10:00:00 11.9 8 Noroeste 18 Oeste 0 -- -- 80
2019-05-24 09:00:00 11.8 5 Oeste 12 Noroeste 0 -- -- 89
2019-05-24 08:00:00 11.7 6 Noroeste 13 Oeste 0 -- -- 92
2019-05-24 07:00:00 11.9 5 Oeste 9 Oeste 0.2 -- -- 93
2019-05-24 06:00:00 11.9 4 Sudoeste 14 Sudoeste 1.8 -- -- 94
2019-05-24 05:00:00 11.9 8 Oeste 21 Oeste 3.4 -- -- 93
2019-05-24 04:00:00 12.7 6 Noroeste 14 Oeste 1.4 -- -- 86
2019-05-24 03:00:00 13.3 5 Oeste 12 Noroeste 0 -- -- 80
2019-05-24 02:00:00 13.5 8 Noroeste 23 Norte 0 -- -- 77
2019-05-24 01:00:00 13.5 9 Noroeste 23 Norte 0 -- -- 86
2019-05-24 00:00:00 13.7 4 Norte 13 Sudoeste 3 -- -- 85
2019-05-23 23:00:00 14 8 Oeste 26 Noroeste 1.8 -- -- 85
2019-05-23 22:00:00 16.2 12 Nordeste 32 Norte 0 -- -- 70
2019-05-23 21:00:00 17.4 14 Norte 30 Norte 0 -- -- 62
2019-05-23 20:00:00 20.5 12 Norte 30 Norte 0 -- -- 53
2019-05-23 19:00:00 23.9 5 Este 13 Este 0 -- -- 46
2019-05-23 18:00:00 23.2 5 Sudeste 9 Sudeste 0 -- -- 47
2019-05-23 17:00:00 22.7 4 Norte 19 Sudoeste 0 -- -- 49
2019-05-23 16:00:00 22.7 6 Sur 22 Sudeste 0 -- -- 51
2019-05-23 15:00:00 22.4 8 Este 13 Este 0 -- -- 52
2019-05-23 14:00:00 23.5 8 Este 17 Este 0 -- -- 42
2019-05-23 13:00:00 21.6 6 Este 17 Este 0 -- -- 46
2019-05-23 12:00:00 20.7 8 Este 16 Sudeste 0 -- -- 49
2019-05-23 11:00:00 19 3 Noroeste 8 Oeste 0 -- -- 60
2019-05-23 10:00:00 16 5 Noroeste 8 Noroeste 0 -- -- 69
2019-05-23 09:00:00 13.1 3 Noroeste 6 Oeste 0 -- -- 80
2019-05-23 08:00:00 11.8 0 Calma 12 Oeste 0 -- -- 84
2019-05-23 07:00:00 10.9 3 Oeste 8 Noroeste 0 -- -- 86
2019-05-23 06:00:00 11.3 6 Oeste 9 Oeste 0 -- -- 85
2019-05-23 05:00:00 11.8 3 Sudoeste 6 Sudoeste 0 -- -- 80
2019-05-23 04:00:00 12.9 3 Oeste 5 Oeste 0 -- -- 76
2019-05-23 03:00:00 14 3 Oeste 8 Oeste 0 -- -- 74
2019-05-23 02:00:00 15.1 2 Sudoeste 6 Oeste 0 -- -- 69
2019-05-23 01:00:00 16.8 3 Sudoeste 6 Sudoeste 0 -- -- 62
2019-05-23 00:00:00 18.6 0 Calma 13 Sudeste 0 -- -- 58
2019-05-22 23:00:00 20.2 5 Este 12 Este 0 -- -- 48
2019-05-22 22:00:00 21.4 0 Calma 10 Este 0 -- -- 43
2019-05-22 21:00:00 23.4 6 Este 10 Nordeste 0 -- -- 36
2019-05-22 20:00:00 24.9 6 Nordeste 17 Noroeste 0 -- -- 30
2019-05-22 19:00:00 25.9 5 Noroeste 21 Oeste 0 -- -- 28
2019-05-22 18:00:00 26.8 8 Noroeste 25 Oeste 0 -- -- 28
2019-05-22 17:00:00 26.1 11 Noroeste 21 Noroeste 0 -- -- 26
2019-05-22 16:00:00 25.6 7 Noroeste 20 Oeste 0 -- -- 31
2019-05-22 15:00:00 23.9 6 Noroeste 13 Noroeste 0 -- -- 31
2019-05-22 14:00:00 22.2 5 Noroeste 11 Oeste 0 -- -- 32
2019-05-22 13:00:00 19.7 5 Norte 13 Sudoeste 0 -- -- 43
2019-05-22 12:00:00 17.7 3 Norte 10 Noroeste 0 -- -- 50
2019-05-22 11:00:00 15 4 Norte 12 Noroeste 0 -- -- 62
2019-05-22 10:00:00 12.2 7 Noroeste 13 Noroeste 0 -- -- 72
2019-05-22 09:00:00 9.8 6 Noroeste 10 Noroeste 0 -- -- 80
2019-05-22 08:00:00 8.9 5 Noroeste 10 Oeste 0 -- -- 86
2019-05-22 07:00:00 6.5 4 Oeste 6 Oeste 0 -- -- 92
2019-05-22 06:00:00 7.1 4 Oeste 7 Oeste 0 -- -- 91
2019-05-22 05:00:00 7.8 0 Calma 6 Oeste 0 -- -- 88
2019-05-22 04:00:00 8.4 2 Oeste 6 Oeste 0 -- -- 86
2019-05-22 03:00:00 9.5 0 Calma 6 Sudoeste 0 -- -- 81
2019-05-22 02:00:00 10.6 0 Calma 10 Sudoeste 0 -- -- 77
2019-05-22 01:00:00 12 4 Oeste 11 Oeste 0 -- -- 69
2019-05-22 00:00:00 13.1 2 Sur 9 Sur 0 -- -- 58
2019-05-21 23:00:00 14.5 7 Sudoeste 14 Sudoeste 0 -- -- 52
2019-05-21 22:00:00 16.5 4 Oeste 12 Noroeste 0 -- -- 46
2019-05-21 21:00:00 18.4 8 Norte 20 Norte 0 -- -- 42
2019-05-21 20:00:00 19.9 10 Norte 22 Norte 0 -- -- 40
2019-05-21 19:00:00 21 12 Norte 23 Noroeste 0 -- -- 37
2019-05-21 18:00:00 21.8 11 Norte 22 Norte 0 -- -- 32
2019-05-21 17:00:00 22.4 10 Noroeste 20 Nordeste 0 -- -- 31
2019-05-21 16:00:00 22.4 10 Noroeste 26 Este 0 -- -- 31
2019-05-21 15:00:00 21.7 7 Noroeste 19 Oeste 0 -- -- 33
2019-05-21 14:00:00 20 4 Noroeste 13 Noroeste 0 -- -- 43
2019-05-21 13:00:00 18.2 4 Noroeste 12 Oeste 0 -- -- 43
2019-05-21 12:00:00 16 6 Noroeste 14 Noroeste 0 -- -- 62
2019-05-21 11:00:00 14.1 7 Oeste 14 Oeste 0 -- -- 71
2019-05-21 10:00:00 11.6 6 Oeste 14 Noroeste 0 -- -- 80
2019-05-21 09:00:00 9.9 7 Noroeste 11 Noroeste 0 -- -- 84
2019-05-21 08:00:00 8.1 4 Noroeste 6 Noroeste 0 -- -- 90
2019-05-21 07:00:00 6.7 2 Oeste 5 Sudoeste 0 -- -- 93
2019-05-21 06:00:00 7.2 0 Calma 7 Oeste 0 -- -- 92
2019-05-21 05:00:00 7.6 3 Oeste 6 Sudoeste 0 -- -- 91
2019-05-21 04:00:00 8.2 0 Calma 6 Noroeste 0 -- -- 89
2019-05-21 03:00:00 9 2 Oeste 4 Oeste 0 -- -- 88
2019-05-21 02:00:00 9.9 0 Calma 5 Oeste 0 -- -- 82
2019-05-21 01:00:00 11.3 0 Calma 4 Oeste 0 -- -- 72
2019-05-21 00:00:00 12.5 2 Sur 12 Sudoeste 0 -- -- 64
2019-05-20 23:00:00 13.4 3 Sur 10 Sur 0 -- -- 64
2019-05-20 22:00:00 14.9 3 Este 16 Nordeste 0 -- -- 57
2019-05-20 21:00:00 17.3 6 Norte 17 Norte 0 -- -- 46
2019-05-20 20:00:00 18.1 8 Norte 17 Norte 0 -- -- 42
2019-05-20 19:00:00 19.7 6 Norte 22 Norte 0 -- -- 40
2019-05-20 18:00:00 19.4 4 Norte 20 Noroeste 0 -- -- 39
2019-05-20 17:00:00 18.8 4 Sudeste 14 Norte 0 -- -- 39
2019-05-20 16:00:00 18.7 7 Noroeste 17 Norte 0 -- -- 42
2019-05-20 15:00:00 18.2 6 Nordeste 13 Este 0 -- -- 45
2019-05-20 14:00:00 16.8 5 Nordeste 13 Oeste 0 -- -- 47
2019-05-20 13:00:00 16.2 6 Noroeste 15 Oeste 0 -- -- 47
2019-05-20 12:00:00 14.7 3 Sudeste 10 Sudoeste 0 -- -- 53
2019-05-20 11:00:00 12.6 4 Noroeste 12 Oeste 0 -- -- 64
2019-05-20 10:00:00 11.1 7 Noroeste 14 Noroeste 0 -- -- 71
2019-05-20 09:00:00 9.4 4 Noroeste 8 Noroeste 0 -- -- 79
2019-05-20 08:00:00 7.1 4 Noroeste 10 Oeste 0 -- -- 87
2019-05-20 07:00:00 5.4 3 Noroeste 13 Noroeste 0 -- -- 91
2019-05-20 06:00:00 5.9 4 Noroeste 8 Oeste 0 -- -- 91
2019-05-20 05:00:00 6.3 0 Calma 6 Oeste 0 -- -- 90
2019-05-20 04:00:00 7 2 Oeste 9 Sudoeste 0 -- -- 87
2019-05-20 03:00:00 7.8 5 Sudoeste 12 Sudoeste 0 -- -- 84
2019-05-20 02:00:00 8.3 4 Sudoeste 10 Oeste 0 -- -- 80
2019-05-20 01:00:00 8.9 4 Oeste 15 Noroeste 0 -- -- 77
2019-05-20 00:00:00 9.3 8 Oeste 14 Oeste 0 -- -- 76
2019-05-19 23:00:00 10.2 3 Oeste 10 Noroeste 0 -- -- 73
2019-05-19 22:00:00 11.3 7 Oeste 17 Noroeste 0 -- -- 68
2019-05-19 21:00:00 12.5 8 Noroeste 21 Noroeste 0 -- -- 63
2019-05-19 20:00:00 14.1 10 Noroeste 24 Norte 0 -- -- 58
2019-05-19 19:00:00 13.9 8 Noroeste 19 Norte 0 -- -- 61
2019-05-19 18:00:00 14.3 13 Norte 23 Noroeste 0 -- -- 58
2019-05-19 17:00:00 13.9 12 Noroeste 22 Noroeste 0 -- -- 59
2019-05-19 16:00:00 12.3 13 Noroeste 25 Noroeste 0 -- -- 65
2019-05-19 15:00:00 13 15 Oeste 30 Oeste 0 -- -- 63
2019-05-19 14:00:00 13 18 Noroeste 36 Oeste 0 -- -- 63
2019-05-19 13:00:00 13.3 19 Oeste 37 Oeste 0 -- -- 62
2019-05-19 12:00:00 12.8 17 Oeste 33 Oeste 0 -- -- 62
2019-05-19 11:00:00 11.9 19 Oeste 36 Oeste 0 -- -- 63
2019-05-19 10:00:00 11.3 16 Oeste 28 Oeste 0 -- -- 70
2019-05-19 09:00:00 10.3 13 Oeste 30 Oeste 0 -- -- 73
2019-05-19 08:00:00 9.7 14 Oeste 26 Oeste 0 -- -- 77
2019-05-19 07:00:00 9.5 14 Oeste 27 Oeste 0 -- -- 78
2019-05-19 06:00:00 9.6 14 Oeste 29 Sudoeste 0 -- -- 77
2019-05-19 05:00:00 9.5 17 Oeste 30 Oeste 0 -- -- 76
2019-05-19 04:00:00 9.2 15 Oeste 28 Oeste 0 -- -- 78
2019-05-19 03:00:00 9 14 Oeste 32 Sudoeste 0 -- -- 80
2019-05-19 02:00:00 9.2 16 Oeste 31 Sudoeste 0 -- -- 79
2019-05-19 01:00:00 9.5 12 Oeste 27 Oeste 0.2 -- -- 78
2019-05-19 00:00:00 9.5 12 Oeste 27 Sudoeste 0 -- -- 78
2019-05-18 23:00:00 9.6 11 Oeste 26 Oeste 0 -- -- 81
2019-05-18 22:00:00 9.6 10 Oeste 31 Noroeste 0 -- -- 80
2019-05-18 21:00:00 10.1 17 Oeste 31 Oeste 0.4 -- -- 76
2019-05-18 20:00:00 11.6 14 Noroeste 29 Oeste 0 -- -- 64
2019-05-18 19:00:00 12.4 13 Oeste 25 Oeste 0 -- -- 73
2019-05-18 18:00:00 12.4 13 Oeste 28 Noroeste 0 -- -- 72
2019-05-18 17:00:00 11.6 17 Noroeste 31 Noroeste 0.2 -- -- 75
2019-05-18 16:00:00 13.2 10 Noroeste 27 Noroeste 0 -- -- 66
2019-05-18 15:00:00 12.7 17 Oeste 26 Oeste 0 -- -- 68
2019-05-18 14:00:00 12.7 9 Noroeste 22 Oeste 0 -- -- 61
2019-05-18 13:00:00 11.9 14 Noroeste 31 Noroeste 0 -- -- 63
2019-05-18 12:00:00 12.3 16 Noroeste 32 Oeste 0 -- -- 59
2019-05-18 11:00:00 11.9 14 Noroeste 28 Oeste 0 -- -- 58
2019-05-18 10:00:00 10.9 14 Noroeste 25 Noroeste 0 -- -- 63
2019-05-18 09:00:00 9.7 15 Oeste 23 Oeste 0 -- -- 69
2019-05-18 08:00:00 8.3 10 Oeste 21 Oeste 0 -- -- 76
2019-05-18 07:00:00 6.3 6 Noroeste 13 Oeste 0 -- -- 87
2019-05-18 06:00:00 7.2 3 Oeste 9 Noroeste 0 -- -- 82
2019-05-18 05:00:00 7.9 6 Oeste 13 Oeste 0 -- -- 77
2019-05-18 04:00:00 7.9 4 Noroeste 13 Oeste 0 -- -- 81
2019-05-18 03:00:00 8.1 8 Oeste 14 Oeste 0 -- -- 79
2019-05-18 02:00:00 8.4 6 Noroeste 15 Oeste 0 -- -- 82
2019-05-18 01:00:00 8.4 3 Noroeste 6 Noroeste 0 -- -- 82
2019-05-18 00:00:00 9.1 6 Oeste 15 Sudoeste 0 -- -- 79
2019-05-17 23:00:00 9.6 4 Oeste 10 Oeste 0 -- -- 77
2019-05-17 22:00:00 10.7 7 Oeste 15 Sudoeste 0 -- -- 73
2019-05-17 21:00:00 11.5 8 Noroeste 21 Noroeste 0 -- -- 68
2019-05-17 20:00:00 12 11 Noroeste 21 Noroeste 0 -- -- 68
2019-05-17 19:00:00 12.4 9 Oeste 25 Oeste 0 -- -- 68
2019-05-17 18:00:00 11.9 11 Oeste 27 Noroeste 0 -- -- 70
2019-05-17 17:00:00 11.2 13 Oeste 35 Oeste 0 -- -- 74
2019-05-17 16:00:00 10.7 17 Oeste 32 Oeste 0 -- -- 80
2019-05-17 15:00:00 10.7 18 Oeste 35 Oeste 0 -- -- 80
2019-05-17 14:00:00 10.9 11 Oeste 32 Oeste 0 -- -- 77
2019-05-17 13:00:00 10.4 17 Oeste 34 Oeste 0 -- -- 78
2019-05-17 12:00:00 10.2 18 Oeste 49 Oeste 0 -- -- 78
2019-05-17 11:00:00 10.5 26 Oeste 44 Sudoeste 0 -- -- 76
2019-05-17 10:00:00 10.4 23 Oeste 46 Oeste 0 -- -- 81
2019-05-17 09:00:00 10.4 22 Oeste 39 Oeste 0 -- -- 86
2019-05-17 08:00:00 9.6 11 Oeste 23 Oeste 0 -- -- 93
2019-05-17 07:00:00 9.2 14 Oeste 29 Oeste 0 -- -- 93
2019-05-17 06:00:00 9.4 10 Oeste 21 Oeste 1.2 -- -- 95
2019-05-17 05:00:00 9.2 10 Oeste 19 Sudoeste 2.2 -- -- 95
2019-05-17 04:00:00 9.1 8 Oeste 21 Sudoeste 2 -- -- 93
2019-05-17 03:00:00 9.2 12 Sudoeste 28 Sudoeste 0.8 -- -- 93
2019-05-17 02:00:00 9.1 14 Oeste 34 Oeste 1.4 -- -- 93
2019-05-17 01:00:00 9.5 15 Oeste 39 Noroeste 4.6 -- -- 91
2019-05-17 00:00:00 11.2 16 Norte 31 Norte 5.8 -- -- 86
2019-05-16 23:00:00 12.5 4 Sudeste 22 Norte 2.2 -- -- 84
2019-05-16 22:00:00 12.9 13 Nordeste 28 Norte 1 -- -- 82
2019-05-16 21:00:00 16.6 9 Sudoeste 21 Sudoeste 0 -- -- 71
2019-05-16 20:00:00 18.1 5 Nordeste 19 Noroeste 0 -- -- 56
2019-05-16 19:00:00 20.3 8 Noroeste 26 Noroeste 0 -- -- 50
2019-05-16 18:00:00 24.6 10 Nordeste 22 Este 0 -- -- 36
2019-05-16 17:00:00 24.2 8 Este 27 Este 0 -- -- 30
2019-05-16 16:00:00 24.4 11 Este 27 Este 0 -- -- 31
2019-05-16 15:00:00 22.9 12 Este 30 Este 0 -- -- 33
2019-05-16 14:00:00 21.4 15 Este 29 Este 0 -- -- 38
2019-05-16 13:00:00 19.6 15 Este 30 Este 0 -- -- 43
2019-05-16 12:00:00 18 13 Este 31 Este 0 -- -- 48
2019-05-16 11:00:00 15.9 17 Este 26 Este 0 -- -- 54
2019-05-16 10:00:00 14.2 12 Este 27 Este 0 -- -- 59
2019-05-16 09:00:00 12.8 14 Este 24 Este 0 -- -- 65
2019-05-16 08:00:00 11.4 15 Este 29 Este 0 -- -- 68
2019-05-16 07:00:00 11.6 13 Este 24 Sudeste 0 -- -- 67
2019-05-16 06:00:00 11.6 9 Este 21 Este 0 -- -- 65
2019-05-16 05:00:00 10.2 0 Calma 13 Este 0 -- -- 62
2019-05-16 04:00:00 10.6 0 Calma 4 Oeste 0 -- -- 61
2019-05-16 03:00:00 12 3 Oeste 5 Oeste 0 -- -- 57
2019-05-16 02:00:00 13.6 0 Calma 4 Oeste 0 -- -- 50
2019-05-16 01:00:00 15.5 0 Calma 13 Sur 0 -- -- 46
2019-05-16 00:00:00 17.2 4 Sur 14 Sur 0 -- -- 37
2019-05-15 23:00:00 18.3 6 Sudoeste 15 Sudoeste 0 -- -- 33
2019-05-15 22:00:00 20.6 5 Sudoeste 10 Sudoeste 0 -- -- 30
2019-05-15 21:00:00 23.7 4 Oeste 15 Noroeste 0 -- -- 26
2019-05-15 20:00:00 25.3 10 Noroeste 22 Noroeste 0 -- -- 23
2019-05-15 19:00:00 26.5 12 Noroeste 25 Noroeste 0 -- -- 23
2019-05-15 18:00:00 26.8 13 Noroeste 24 Noroeste 0 -- -- 23
2019-05-15 17:00:00 27.9 13 Noroeste 22 Noroeste 0 -- -- 21
2019-05-15 16:00:00 28.5 8 Norte 18 Nordeste 0 -- -- 20
2019-05-15 15:00:00 27.6 4 Nordeste 18 Sudoeste 0 -- -- 23
2019-05-15 14:00:00 26.7 8 Noroeste 21 Oeste 0 -- -- 22
2019-05-15 13:00:00 25.2 12 Oeste 19 Oeste 0 -- -- 24
2019-05-15 12:00:00 22.3 12 Oeste 26 Oeste 0 -- -- 30
2019-05-15 11:00:00 19.5 13 Oeste 24 Oeste 0 -- -- 39
2019-05-15 10:00:00 17.3 11 Oeste 20 Oeste 0 -- -- 45
2019-05-15 09:00:00 14.3 4 Noroeste 15 Oeste 0 -- -- 54
2019-05-15 08:00:00 13.4 9 Sudoeste 17 Oeste 0 -- -- 52
2019-05-15 07:00:00 10.3 4 Noroeste 18 Sudoeste 0 -- -- 65
2019-05-15 06:00:00 12.3 8 Sudoeste 19 Oeste 0 -- -- 56
2019-05-15 05:00:00 12.8 7 Sudoeste 18 Oeste 0 -- -- 56
2019-05-15 04:00:00 13.3 8 Sudoeste 21 Oeste 0 -- -- 55
2019-05-15 03:00:00 14 8 Sudoeste 24 Sudoeste 0 -- -- 53
2019-05-15 02:00:00 15.2 11 Oeste 23 Oeste 0 -- -- 50
2019-05-15 01:00:00 16.3 10 Oeste 23 Sudoeste 0 -- -- 46
2019-05-15 00:00:00 16.8 10 Sudoeste 22 Sudoeste 0 -- -- 47
2019-05-14 23:00:00 18.3 9 Sudoeste 18 Sudoeste 0 -- -- 45
2019-05-14 22:00:00 21.1 9 Oeste 18 Oeste 0 -- -- 40
2019-05-14 21:00:00 25.2 9 Oeste 14 Oeste 0 -- -- 32
2019-05-14 20:00:00 27.4 6 Noroeste 14 Oeste 0 -- -- 19
2019-05-14 19:00:00 28.4 6 Noroeste 15 Oeste 0 -- -- 19
2019-05-14 18:00:00 29 9 Oeste 17 Oeste 0 -- -- 18
2019-05-14 17:00:00 28.6 9 Oeste 18 Oeste 0 -- -- 18
2019-05-14 16:00:00 27.2 6 Oeste 13 Oeste 0 -- -- 24
2019-05-14 15:00:00 25.2 6 Noroeste 14 Oeste 0 -- -- 23
2019-05-14 14:00:00 23.4 6 Noroeste 13 Oeste 0 -- -- 24
2019-05-14 13:00:00 21.4 3 Noroeste 10 Oeste 0 -- -- 32
2019-05-14 12:00:00 18.5 4 Noroeste 12 Oeste 0 -- -- 35
2019-05-14 11:00:00 16 7 Oeste 15 Oeste 0 -- -- 45
2019-05-14 10:00:00 12.2 8 Noroeste 13 Noroeste 0 -- -- 56
2019-05-14 09:00:00 9 5 Noroeste 10 Noroeste 0 -- -- 64
2019-05-14 08:00:00 6.9 3 Noroeste 9 Noroeste 0 -- -- 71
2019-05-14 07:00:00 5.6 4 Oeste 9 Oeste 0 -- -- 74
2019-05-14 06:00:00 6.6 3 Noroeste 14 Oeste 0 -- -- 66
2019-05-14 05:00:00 7.2 6 Oeste 10 Noroeste 0 -- -- 66
2019-05-14 04:00:00 8.1 0 Calma 8 Oeste 0 -- -- 60
2019-05-14 03:00:00 9.4 5 Sudoeste 19 Sudoeste 0 -- -- 55
2019-05-14 02:00:00 10.4 10 Sudoeste 19 Sudoeste 0 -- -- 51
2019-05-14 01:00:00 11.2 13 Sudoeste 24 Sur 0 -- -- 49
2019-05-14 00:00:00 12 13 Sudoeste 24 Sudoeste 0 -- -- 47
2019-05-13 23:00:00 13.2 10 Sudoeste 21 Sudoeste 0 -- -- 41
2019-05-13 22:00:00 15.6 7 Sudoeste 15 Oeste 0 -- -- 34
2019-05-13 21:00:00 17.3 8 Norte 25 Norte 0 -- -- 29
2019-05-13 20:00:00 19.3 13 Norte 28 Norte 0 -- -- 27
2019-05-13 19:00:00 22 12 Norte 25 Norte 0 -- -- 20
2019-05-13 18:00:00 23.6 6 Norte 22 Nordeste 0 -- -- 15
2019-05-13 17:00:00 22.7 15 Nordeste 31 Nordeste 0 -- -- 17
2019-05-13 16:00:00 23.8 11 Nordeste 24 Nordeste 0 -- -- 14
2019-05-13 15:00:00 24.3 4 Sudoeste 19 Sur 0 -- -- 18
2019-05-13 14:00:00 22.7 10 Oeste 21 Oeste 0 -- -- 25
2019-05-13 13:00:00 20.9 7 Oeste 24 Sudoeste 0 -- -- 28
2019-05-13 12:00:00 18.8 11 Oeste 27 Oeste 0 -- -- 33
2019-05-13 11:00:00 16.1 14 Oeste 25 Oeste 0 -- -- 41
2019-05-13 10:00:00 14.1 14 Oeste 25 Oeste 0 -- -- 52
2019-05-13 09:00:00 12 13 Sudoeste 23 Sudoeste 0 -- -- 63
2019-05-13 08:00:00 9.9 11 Sudoeste 21 Sudoeste 0 -- -- 69
2019-05-13 07:00:00 8 9 Sudoeste 18 Sudoeste 0 -- -- 76
2019-05-13 06:00:00 8.3 8 Sudoeste 17 Sudoeste 0 -- -- 75
2019-05-13 05:00:00 8.4 8 Sudoeste 17 Sudoeste 0 -- -- 75
2019-05-13 04:00:00 9 10 Sudoeste 18 Sudoeste 0 -- -- 73
2019-05-13 03:00:00 9.6 6 Sudoeste 15 Sudoeste 0 -- -- 72
2019-05-13 02:00:00 10.2 4 Sudoeste 10 Sudoeste 0 -- -- 73
2019-05-13 01:00:00 11.3 3 Sur 18 Oeste 0 -- -- 70
2019-05-13 00:00:00 12.8 5 Sudoeste 15 Sudoeste 0 -- -- 60
2019-05-12 23:00:00 14 3 Sudeste 10 Sudeste 0 -- -- 52
2019-05-12 22:00:00 15.9 2 Sudeste 15 Nordeste 0 -- -- 50
2019-05-12 21:00:00 18.5 4 Este 14 Este 0 -- -- 37
2019-05-12 20:00:00 20 6 Norte 22 Norte 0 -- -- 37
2019-05-12 19:00:00 21.2 9 Norte 22 Noroeste 0 -- -- 35
2019-05-12 18:00:00 22.7 14 Noroeste 32 Oeste 0 -- -- 33
2019-05-12 17:00:00 23.3 9 Oeste 22 Oeste 0 -- -- 34
2019-05-12 16:00:00 22.2 9 Oeste 21 Oeste 0 -- -- 34
2019-05-12 15:00:00 20.8 11 Noroeste 23 Oeste 0 -- -- 36
2019-05-12 14:00:00 19.3 9 Oeste 19 Sudoeste 0 -- -- 36
2019-05-12 13:00:00 17.9 4 Sudoeste 10 Oeste 0 -- -- 33
2019-05-12 12:00:00 15 4 Noroeste 12 Noroeste 0 -- -- 43
2019-05-12 11:00:00 13.3 4 Norte 14 Oeste 0 -- -- 53
2019-05-12 10:00:00 11.9 7 Noroeste 21 Sudoeste 0 -- -- 60
2019-05-12 09:00:00 10.6 8 Sudoeste 17 Oeste 0 -- -- 66
2019-05-12 08:00:00 8.3 4 Sudoeste 15 Sudoeste 0 -- -- 75
2019-05-12 07:00:00 6.5 9 Sudoeste 17 Sudoeste 0 -- -- 79
2019-05-12 06:00:00 7.1 8 Sudoeste 17 Sur 0 -- -- 79
2019-05-12 05:00:00 7.8 8 Sudoeste 15 Sudoeste 0 -- -- 78
2019-05-12 04:00:00 8 9 Sudoeste 16 Sudoeste 0 -- -- 78
2019-05-12 03:00:00 8.6 5 Sudoeste 18 Sudoeste 0 -- -- 77
2019-05-12 02:00:00 9.1 6 Sudoeste 19 Sudoeste 0 -- -- 73
2019-05-12 01:00:00 9.7 4 Noroeste 12 Sudoeste 0 -- -- 69
2019-05-12 00:00:00 10.6 3 Sudoeste 10 Sudoeste 0 -- -- 64
2019-05-11 23:00:00 12.3 6 Oeste 17 Norte 0 -- -- 55
2019-05-11 22:00:00 13.5 3 Noroeste 13 Norte 0 -- -- 53
2019-05-11 21:00:00 15 9 Norte 21 Nordeste 0 -- -- 52
2019-05-11 20:00:00 16.8 10 Norte 25 Noroeste 0 -- -- 50
2019-05-11 19:00:00 18.3 11 Noroeste 28 Noroeste 0 -- -- 42
2019-05-11 18:00:00 19.2 13 Norte 30 Norte 0 -- -- 37
2019-05-11 17:00:00 18.8 15 Noroeste 32 Noroeste 0 -- -- 40
2019-05-11 16:00:00 19.6 11 Norte 31 Noroeste 0 -- -- 38
2019-05-11 15:00:00 18.4 15 Noroeste 26 Noroeste 0 -- -- 41
2019-05-11 14:00:00 18.2 14 Noroeste 28 Norte 0 -- -- 42
2019-05-11 13:00:00 16.8 8 Noroeste 23 Noroeste 0 -- -- 48
2019-05-11 12:00:00 15 3 Sudeste 10 Sudeste 0 -- -- 61
2019-05-11 11:00:00 13.9 5 Oeste 16 Noroeste 0 -- -- 67
2019-05-11 10:00:00 12.9 6 Noroeste 11 Norte 0 -- -- 72
2019-05-11 09:00:00 13 3 Noroeste 10 Norte 0 -- -- 75
2019-05-11 08:00:00 12.8 2 Noroeste 12 Oeste 0 -- -- 77
2019-05-11 07:00:00 13.2 4 Oeste 8 Oeste 0 -- -- 76
2019-05-11 06:00:00 13.3 5 Oeste 10 Oeste 0 -- -- 76
2019-05-11 05:00:00 13.4 3 Noroeste 7 Oeste 0 -- -- 83
2019-05-11 04:00:00 13.3 3 Noroeste 8 Oeste 0 -- -- 84
2019-05-11 03:00:00 13.7 3 Sudoeste 6 Sudoeste 0 -- -- 82
2019-05-11 02:00:00 14.5 3 Noroeste 21 Sudoeste 0 -- -- 79
2019-05-11 01:00:00 14.8 11 Oeste 22 Oeste 0 -- -- 79
2019-05-11 00:00:00 15.8 12 Sudoeste 27 Sudoeste 0 -- -- 75
2019-05-10 23:00:00 17.1 9 Oeste 27 Norte 0 -- -- 68
2019-05-10 22:00:00 20.9 11 Norte 25 Noroeste 0 -- -- 49
2019-05-10 21:00:00 23.7 12 Oeste 28 Oeste 0 -- -- 35
2019-05-10 20:00:00 25 14 Oeste 37 Oeste 0 -- -- 33
2019-05-10 19:00:00 25.6 24 Oeste 44 Oeste 0 -- -- 35
2019-05-10 18:00:00 25.5 21 Oeste 49 Oeste 0 -- -- 37
2019-05-10 17:00:00 24.9 17 Noroeste 36 Noroeste 0 -- -- 42
2019-05-10 16:00:00 25.4 18 Noroeste 38 Oeste 0 -- -- 39
2019-05-10 15:00:00 24.4 18 Oeste 33 Noroeste 0 -- -- 40
2019-05-10 14:00:00 23.3 6 Sur 16 Sur 0 -- -- 50
2019-05-10 13:00:00 20.3 9 Este 19 Este 0 -- -- 62
2019-05-10 12:00:00 19.3 4 Este 22 Este 0 -- -- 64
2019-05-10 11:00:00 16.5 8 Este 15 Nordeste 0 -- -- 71
2019-05-10 10:00:00 14.9 7 Este 15 Este 0 -- -- 77
2019-05-10 09:00:00 14 8 Este 15 Este 0 -- -- 78
2019-05-10 08:00:00 13 8 Este 16 Este 0 -- -- 83
2019-05-10 07:00:00 12.8 6 Nordeste 15 Este 0 -- -- 83
2019-05-10 06:00:00 12.9 2 Nordeste 15 Este 0 -- -- 80
2019-05-10 05:00:00 13.2 6 Nordeste 14 Nordeste 0 -- -- 75
2019-05-10 04:00:00 13.6 5 Este 14 Nordeste 0 -- -- 69
2019-05-10 03:00:00 14 5 Nordeste 16 Nordeste 0 -- -- 65
2019-05-10 02:00:00 14.4 6 Este 15 Sudeste 0 -- -- 61
2019-05-10 01:00:00 14.8 4 Este 17 Este 0 -- -- 58
2019-05-10 00:00:00 14.7 3 Norte 11 Este 0 -- -- 58
2019-05-09 23:00:00 15 3 Nordeste 11 Este 0 -- -- 59
2019-05-09 22:00:00 15.3 3 Este 12 Este 0 -- -- 56
2019-05-09 21:00:00 15.4 5 Sudeste 13 Este 0 -- -- 55
2019-05-09 20:00:00 15.7 6 Este 12 Sudeste 0 -- -- 54
2019-05-09 19:00:00 17.1 5 Sudeste 12 Este 0 -- -- 44
2019-05-09 18:00:00 17.2 0 Calma 20 Noroeste 0 -- -- 44
2019-05-09 17:00:00 17.2 11 Noroeste 24 Noroeste 0 -- -- 43
2019-05-09 16:00:00 16.5 12 Noroeste 35 Oeste 0 -- -- 43
2019-05-09 15:00:00 17.6 15 Noroeste 27 Noroeste 0 -- -- 36
2019-05-09 14:00:00 17.6 17 Noroeste 35 Oeste 0 -- -- 43
2019-05-09 13:00:00 17.5 17 Noroeste 32 Oeste 0 -- -- 42
2019-05-09 12:00:00 15.6 18 Noroeste 36 Noroeste 0 -- -- 47
2019-05-09 11:00:00 14.9 18 Noroeste 39 Oeste 0 -- -- 51
2019-05-09 10:00:00 13.4 20 Noroeste 44 Oeste 0 -- -- 54
2019-05-09 09:00:00 11.9 17 Noroeste 32 Noroeste 0 -- -- 58
2019-05-09 08:00:00 11 12 Noroeste 24 Noroeste 0 -- -- 60
2019-05-09 07:00:00 10.3 12 Noroeste 31 Noroeste 0 -- -- 60
2019-05-09 06:00:00 10.5 10 Noroeste 40 Noroeste 0 -- -- 59
2019-05-09 05:00:00 11.2 20 Noroeste 39 Noroeste 0 -- -- 54
2019-05-09 04:00:00 11.2 17 Noroeste 30 Noroeste 0 -- -- 57
2019-05-09 03:00:00 12.1 17 Noroeste 46 Oeste 0 -- -- 53
2019-05-09 02:00:00 13 23 Oeste 40 Oeste 0 -- -- 49
2019-05-09 01:00:00 13.8 14 Oeste 41 Sudoeste 0 -- -- 45
2019-05-09 00:00:00 14.7 18 Oeste 41 Oeste 0 -- -- 42
2019-05-08 23:00:00 15.8 23 Oeste 54 Oeste 0 -- -- 38
2019-05-08 22:00:00 16.6 25 Oeste 45 Oeste 0 -- -- 34
2019-05-08 21:00:00 18.3 31 Oeste 55 Oeste 0 -- -- 30
2019-05-08 20:00:00 20 33 Oeste 59 Oeste 0 -- -- 26
2019-05-08 19:00:00 21 32 Oeste 57 Oeste 0 -- -- 28
2019-05-08 18:00:00 21.7 30 Oeste 64 Sudoeste 0 -- -- 32
2019-05-08 17:00:00 22.2 32 Oeste 69 Oeste 0 -- -- 30
2019-05-08 16:00:00 21.4 37 Oeste 68 Oeste 0 -- -- 31
2019-05-08 15:00:00 21.8 32 Oeste 73 Oeste 0 -- -- 33
2019-05-08 14:00:00 21.8 30 Oeste 47 Oeste 0 -- -- 35
2019-05-08 13:00:00 21.7 24 Oeste 49 Oeste 0 -- -- 39
2019-05-08 12:00:00 20.9 7 Oeste 18 Sudoeste 0 -- -- 49
2019-05-08 11:00:00 18.4 3 Nordeste 9 Nordeste 0 -- -- 60
2019-05-08 10:00:00 17.3 5 Norte 9 Nordeste 0 -- -- 65
2019-05-08 09:00:00 16 3 Este 9 Este 0 -- -- 69
2019-05-08 08:00:00 14.5 3 Nordeste 8 Este 0 -- -- 74
2019-05-08 07:00:00 15.1 2 Este 7 Sudoeste 0 -- -- 69
2019-05-08 06:00:00 15.7 0 Calma 15 Oeste 0 -- -- 67
2019-05-08 05:00:00 16.2 11 Oeste 20 Oeste 0 -- -- 66
2019-05-08 04:00:00 16.3 8 Oeste 32 Oeste 0 -- -- 62
2019-05-08 03:00:00 16.8 17 Oeste 36 Noroeste 0 -- -- 56
2019-05-08 02:00:00 18.2 15 Oeste 32 Oeste 0 -- -- 50
2019-05-08 01:00:00 17.2 5 Noroeste 15 Noroeste 0 -- -- 65
2019-05-08 00:00:00 18.6 0 Calma 5 Sudoeste 0 -- -- 56
2019-05-07 23:00:00 19.3 3 Sudeste 5 Sudeste 0 -- -- 51
2019-05-07 22:00:00 20.1 3 Noroeste 12 Sudeste 0 -- -- 47
2019-05-07 21:00:00 21.1 4 Sudeste 12 Sur 0 -- -- 41
2019-05-07 20:00:00 21.9 3 Este 8 Este 0 -- -- 39
2019-05-07 19:00:00 22.4 4 Este 14 Este 0 -- -- 39
2019-05-07 18:00:00 22.8 7 Este 15 Sudeste 0 -- -- 36
2019-05-07 17:00:00 22.8 7 Sudeste 17 Este 0 -- -- 35
2019-05-07 16:00:00 22.4 9 Este 17 Este 0 -- -- 35
2019-05-07 15:00:00 21.2 9 Este 19 Este 0 -- -- 37
2019-05-07 14:00:00 19.7 9 Este 20 Sudeste 0 -- -- 40
2019-05-07 13:00:00 17.7 8 Este 18 Este 0 -- -- 44
2019-05-07 12:00:00 15.8 8 Este 18 Este 0 -- -- 49
2019-05-07 11:00:00 14.3 11 Este 17 Este 0 -- -- 53
2019-05-07 10:00:00 13 8 Este 14 Sudeste 0 -- -- 64
2019-05-07 09:00:00 10.3 2 Nordeste 4 Este 0 -- -- 77
2019-05-07 08:00:00 9 0 Calma 7 Noroeste 0 -- -- 82
2019-05-07 07:00:00 8.9 3 Oeste 6 Oeste 0 -- -- 82
2019-05-07 06:00:00 9.2 3 Oeste 6 Oeste 0 -- -- 79
2019-05-07 05:00:00 9.9 2 Sudoeste 4 Sudoeste 0 -- -- 76
2019-05-07 04:00:00 11.1 0 Calma 5 Oeste 0 -- -- 72
2019-05-07 03:00:00 12.3 3 Oeste 6 Oeste 0 -- -- 66
2019-05-07 02:00:00 12.9 2 Sudoeste 8 Oeste 0 -- -- 61
2019-05-07 01:00:00 14.4 2 Sudoeste 9 Sudoeste 0 -- -- 51
2019-05-07 00:00:00 16.3 3 Sur 17 Este 0 -- -- 41
2019-05-06 23:00:00 18.5 8 Este 18 Este 0 -- -- 34
2019-05-06 22:00:00 19.9 11 Este 21 Este 0 -- -- 35
2019-05-06 21:00:00 22.2 3 Este 9 Noroeste 0 -- -- 31
2019-05-06 20:00:00 23.6 3 Noroeste 12 Noroeste 0 -- -- 28
2019-05-06 19:00:00 23.7 5 Norte 15 Oeste 0 -- -- 28
2019-05-06 18:00:00 24.2 12 Noroeste 19 Noroeste 0 -- -- 26
2019-05-06 17:00:00 24.6 6 Oeste 15 Noroeste 0 -- -- 25
2019-05-06 16:00:00 22.7 6 Oeste 19 Oeste 0 -- -- 27
2019-05-06 15:00:00 21.3 5 Noroeste 14 Oeste 0 -- -- 26
2019-05-06 14:00:00 19 4 Este 12 Nordeste 0 -- -- 24
2019-05-06 13:00:00 16.6 4 Oeste 9 Oeste 0 -- -- 25
2019-05-06 12:00:00 13.2 3 Nordeste 10 Noroeste 0 -- -- 42
2019-05-06 11:00:00 10.8 4 Noroeste 13 Oeste 0 -- -- 53
2019-05-06 10:00:00 7.5 5 Noroeste 12 Noroeste 0 -- -- 65
2019-05-06 09:00:00 4.9 5 Noroeste 10 Noroeste 0 -- -- 74
2019-05-06 08:00:00 2.2 4 Noroeste 8 Noroeste 0 -- -- 82
2019-05-06 07:00:00 1.4 3 Noroeste 7 Noroeste 0 -- -- 84
2019-05-06 06:00:00 2.1 0 Calma 5 Noroeste 0 -- -- 81
2019-05-06 05:00:00 3 2 Noroeste 7 Oeste 0 -- -- 77
2019-05-06 04:00:00 3.9 0 Calma 4 Sur 0 -- -- 74
2019-05-06 03:00:00 5 2 Oeste 9 Oeste 0 -- -- 73
2019-05-06 02:00:00 6.3 0 Calma 4 Este 0 -- -- 71
2019-05-06 01:00:00 7.6 0 Calma 10 Este 0 -- -- 62
2019-05-06 00:00:00 8.5 3 Este 18 Sudeste 0 -- -- 58
2019-05-05 23:00:00 9.5 6 Sudeste 20 Sudeste 0 -- -- 53
2019-05-05 22:00:00 11.1 4 Sur 9 Sur 0 -- -- 46
2019-05-05 21:00:00 12.5 5 Norte 15 Norte 0 -- -- 39
2019-05-05 20:00:00 14.6 9 Norte 19 Norte 0 -- -- 31
2019-05-05 19:00:00 15.4 10 Norte 22 Oeste 0 -- -- 29
2019-05-05 18:00:00 16.8 9 Noroeste 22 Noroeste 0 -- -- 30
2019-05-05 17:00:00 16.9 8 Oeste 22 Oeste 0 -- -- 29
2019-05-05 16:00:00 16.4 10 Oeste 24 Noroeste 0 -- -- 27
2019-05-05 15:00:00 14.8 7 Noroeste 19 Sudeste 0 -- -- 27
2019-05-05 14:00:00 13.3 8 Nordeste 22 Norte 0 -- -- 26
2019-05-05 13:00:00 12.5 7 Oeste 18 Este 0 -- -- 33
2019-05-05 12:00:00 11.1 6 Este 14 Sudeste 0 -- -- 36
2019-05-05 11:00:00 9.7 4 Sudeste 17 Sur 0 -- -- 42
2019-05-05 10:00:00 8.8 6 Sudoeste 17 Sudoeste 0 -- -- 53
2019-05-05 09:00:00 7 6 Sudoeste 17 Sudoeste 0 -- -- 62
2019-05-05 08:00:00 4.6 5 Oeste 13 Sudoeste 0 -- -- 74
2019-05-05 07:00:00 4.1 4 Oeste 16 Oeste 0 -- -- 73
2019-05-05 06:00:00 5.4 5 Oeste 19 Oeste 0 -- -- 71
2019-05-05 05:00:00 7 9 Noroeste 18 Oeste 0 -- -- 67
2019-05-05 04:00:00 8.2 7 Noroeste 18 Noroeste 0 -- -- 65
2019-05-05 03:00:00 8.8 5 Noroeste 26 Oeste 0 -- -- 69
2019-05-05 02:00:00 9.4 12 Oeste 24 Oeste 0 -- -- 69
2019-05-05 01:00:00 9.1 10 Oeste 30 Noroeste 0 -- -- 69
2019-05-05 00:00:00 9.5 12 Noroeste 30 Noroeste 0 -- -- 73
2019-05-04 23:00:00 10.6 12 Noroeste 30 Noroeste 0 -- -- 69
2019-05-04 22:00:00 11.3 10 Noroeste 40 Norte 0 -- -- 69
2019-05-04 21:00:00 12.4 13 Noroeste 38 Norte 0 -- -- 62
2019-05-04 20:00:00 14.1 17 Noroeste 38 Noroeste 0 -- -- 52
2019-05-04 19:00:00 15.2 16 Norte 35 Norte 0 -- -- 51
2019-05-04 18:00:00 16.5 15 Noroeste 34 Noroeste 0 -- -- 43
2019-05-04 17:00:00 16.6 12 Noroeste 29 Noroeste 0 -- -- 45
2019-05-04 16:00:00 16.5 12 Noroeste 26 Noroeste 0 -- -- 45
2019-05-04 15:00:00 16.1 13 Noroeste 27 Noroeste 0 -- -- 43
2019-05-04 14:00:00 15.8 13 Oeste 26 Oeste 0 -- -- 47
2019-05-04 13:00:00 15 12 Noroeste 24 Oeste 0 -- -- 50
2019-05-04 12:00:00 13.6 10 Noroeste 19 Oeste 0 -- -- 56
2019-05-04 11:00:00 11.7 9 Noroeste 16 Oeste 0 -- -- 61
2019-05-04 10:00:00 10.4 9 Noroeste 17 Oeste 0 -- -- 72
2019-05-04 09:00:00 9.5 7 Oeste 17 Sudoeste 0 -- -- 76
2019-05-04 08:00:00 8.1 6 Oeste 15 Oeste 0 -- -- 82
2019-05-04 07:00:00 7.1 5 Oeste 14 Sudoeste 0 -- -- 86
2019-05-04 06:00:00 6.6 4 Sudoeste 13 Sudoeste 0 -- -- 86
2019-05-04 05:00:00 6.9 6 Sudoeste 11 Sudoeste 0 -- -- 86
2019-05-04 04:00:00 8 6 Oeste 17 Oeste 0 -- -- 82
2019-05-04 03:00:00 8.4 8 Oeste 15 Sudoeste 0 -- -- 84
2019-05-04 02:00:00 8.7 5 Oeste 12 Oeste 0 -- -- 81
2019-05-04 01:00:00 9.2 6 Oeste 13 Oeste 0 -- -- 78
2019-05-04 00:00:00 9.7 8 Oeste 19 Oeste 0 -- -- 76
2019-05-03 23:00:00 9.7 9 Oeste 18 Oeste 0 -- -- 73
2019-05-03 22:00:00 9.8 7 Oeste 14 Oeste 0 -- -- 74
2019-05-03 21:00:00 10.1 5 Noroeste 20 Noroeste 0 -- -- 75
2019-05-03 20:00:00 10.4 7 Oeste 15 Noroeste 0.2 -- -- 76
2019-05-03 19:00:00 10.7 9 Noroeste 19 Noroeste 0 -- -- 75
2019-05-03 18:00:00 10.8 10 Noroeste 28 Noroeste 0 -- -- 78
2019-05-03 17:00:00 11.7 12 Noroeste 23 Norte 0 -- -- 68
2019-05-03 16:00:00 11.7 12 Noroeste 23 Noroeste 0 -- -- 67
2019-05-03 15:00:00 11.8 12 Oeste 23 Oeste 0 -- -- 69
2019-05-03 14:00:00 10.8 12 Oeste 22 Oeste 0 -- -- 76
2019-05-03 13:00:00 10.7 11 Oeste 21 Oeste 0 -- -- 75
2019-05-03 12:00:00 9.5 14 Oeste 25 Oeste 0 -- -- 77
2019-05-03 11:00:00 8.9 9 Noroeste 18 Oeste 0.2 -- -- 83
2019-05-03 10:00:00 7.4 8 Oeste 17 Noroeste 1 -- -- 89
2019-05-03 09:00:00 7.6 11 Noroeste 28 Noroeste 0.8 -- -- 82
2019-05-03 08:00:00 9.4 9 Noroeste 18 Oeste 0 -- -- 72
2019-05-03 07:00:00 9.2 11 Oeste 18 Oeste 0 -- -- 73
2019-05-03 06:00:00 9.3 7 Oeste 13 Oeste 0 -- -- 74
2019-05-03 05:00:00 9.5 5 Oeste 10 Oeste 0 -- -- 73
2019-05-03 04:00:00 10.1 8 Oeste 14 Oeste 0 -- -- 71
2019-05-03 03:00:00 10.5 5 Oeste 13 Oeste 0 -- -- 70
2019-05-03 02:00:00 10.6 6 Oeste 12 Oeste 0 -- -- 68
2019-05-03 01:00:00 10.7 6 Noroeste 12 Sudoeste 0 -- -- 63
2019-05-03 00:00:00 10.6 7 Noroeste 21 Noroeste 0 -- -- 63
2019-05-02 23:00:00 10.6 8 Noroeste 18 Noroeste 0 -- -- 62
2019-05-02 22:00:00 11.1 8 Noroeste 22 Noroeste 0 -- -- 63
2019-05-02 21:00:00 12.2 9 Noroeste 24 Noroeste 0 -- -- 56
2019-05-02 20:00:00 14 10 Norte 28 Norte 0 -- -- 51
2019-05-02 19:00:00 16.3 11 Noroeste 24 Noroeste 0 -- -- 44
2019-05-02 18:00:00 18.1 13 Oeste 23 Oeste 0 -- -- 40
2019-05-02 17:00:00 17.9 10 Noroeste 20 Noroeste 0 -- -- 40
2019-05-02 16:00:00 17.6 9 Noroeste 19 Oeste 0 -- -- 42
2019-05-02 15:00:00 16.3 6 Nordeste 17 Nordeste 0 -- -- 45
2019-05-02 14:00:00 16.5 5 Oeste 18 Oeste 0 -- -- 45
2019-05-02 13:00:00 14.9 6 Sudoeste 14 Sudoeste 0 -- -- 51
2019-05-02 12:00:00 14 4 Sudoeste 13 Sudoeste 0 -- -- 55
2019-05-02 11:00:00 12.9 6 Oeste 14 Sudoeste 0 -- -- 61
2019-05-02 10:00:00 11.5 5 Sudoeste 13 Sudoeste 0 -- -- 66
2019-05-02 09:00:00 10.5 6 Sudoeste 16 Sudoeste 0 -- -- 72
2019-05-02 08:00:00 9.8 8 Sudoeste 17 Sudoeste 0 -- -- 73
2019-05-02 07:00:00 9.5 6 Sudoeste 14 Sudoeste 0 -- -- 74
2019-05-02 06:00:00 9.4 5 Oeste 13 Oeste 0 -- -- 73
2019-05-02 05:00:00 9.5 7 Oeste 17 Oeste 0 -- -- 73
2019-05-02 04:00:00 9.8 7 Oeste 16 Oeste 0 -- -- 71
2019-05-02 03:00:00 10.4 8 Oeste 17 Oeste 0 -- -- 69
2019-05-02 02:00:00 10.8 7 Oeste 13 Oeste 0 -- -- 68
2019-05-02 01:00:00 11.3 6 Oeste 12 Oeste 0 -- -- 68
2019-05-02 00:00:00 11.5 3 Oeste 13 Oeste 0 -- -- 68
2019-05-01 23:00:00 12.3 7 Oeste 19 Norte 0 -- -- 62
2019-05-01 22:00:00 13.2 4 Norte 18 Norte 0 -- -- 56
2019-05-01 21:00:00 14.9 7 Noroeste 23 Norte 0 -- -- 49
2019-05-01 20:00:00 17.8 8 Norte 17 Norte 0 -- -- 46
2019-05-01 19:00:00 19.5 9 Noroeste 19 Noroeste 0 -- -- 42
2019-05-01 18:00:00 20.4 12 Noroeste 30 Norte 0 -- -- 43
2019-05-01 17:00:00 22.3 14 Norte 31 Norte 0 -- -- 40
2019-05-01 16:00:00 23.3 5 Oeste 18 Oeste 0 -- -- 30
2019-05-01 15:00:00 22.1 4 Norte 13 Este 0 -- -- 31
2019-05-01 14:00:00 20.5 6 Norte 14 Norte 0 -- -- 30
2019-05-01 13:00:00 19.6 6 Este 15 Este 0 -- -- 31
2019-05-01 12:00:00 16.9 4 Noroeste 9 Noroeste 0 -- -- 38
2019-05-01 11:00:00 14.2 4 Noroeste 13 Noroeste 0 -- -- 55
2019-05-01 10:00:00 11.2 5 Noroeste 9 Noroeste 0 -- -- 64
2019-05-01 09:00:00 8.5 5 Noroeste 10 Oeste 0 -- -- 75
2019-05-01 08:00:00 6.4 5 Oeste 12 Oeste 0 -- -- 85
2019-05-01 07:00:00 6.4 4 Oeste 10 Noroeste 0 -- -- 84
2019-05-01 06:00:00 7 5 Oeste 9 Oeste 0 -- -- 82
2019-05-01 05:00:00 8 0 Calma 6 Sudoeste 0 -- -- 77
2019-05-01 04:00:00 8.7 0 Calma 6 Oeste 0 -- -- 74
2019-05-01 03:00:00 10.2 3 Oeste 9 Oeste 0 -- -- 68
2019-05-01 02:00:00 11.6 6 Sudoeste 11 Oeste 0 -- -- 60
2019-05-01 01:00:00 12.4 5 Sudoeste 14 Sudoeste 0 -- -- 59
2019-05-01 00:00:00 13.5 6 Sudoeste 14 Sudoeste 0 -- -- 57
2019-04-30 23:00:00 14.8 4 Sudoeste 13 Sur 0 -- -- 46
2019-04-30 22:00:00 16.5 5 Sudoeste 11 Sudoeste 0 -- -- 40
2019-04-30 21:00:00 18.8 5 Oeste 18 Norte 0 -- -- 36
2019-04-30 20:00:00 20.5 10 Norte 21 Norte 0 -- -- 33
2019-04-30 19:00:00 22.1 8 Norte 19 Norte 0 -- -- 30
2019-04-30 18:00:00 22.8 11 Norte 22 Norte 0 -- -- 27
2019-04-30 17:00:00 23.3 7 Norte 27 Oeste 0 -- -- 21
2019-04-30 16:00:00 24.1 12 Oeste 22 Sudoeste 0 -- -- 20
2019-04-30 15:00:00 22.8 8 Oeste 19 Oeste 0 -- -- 27
2019-04-30 14:00:00 21.6 9 Oeste 22 Oeste 0 -- -- 33
2019-04-30 13:00:00 19.8 8 Noroeste 18 Oeste 0 -- -- 36
2019-04-30 12:00:00 18.4 10 Oeste 19 Oeste 0 -- -- 42
2019-04-30 11:00:00 16.5 9 Oeste 17 Oeste 0 -- -- 55
2019-04-30 10:00:00 14 10 Oeste 20 Oeste 0 -- -- 67
2019-04-30 09:00:00 11.1 4 Noroeste 12 Oeste 0 -- -- 78
2019-04-30 08:00:00 8.3 3 Oeste 11 Oeste 0 -- -- 85
2019-04-30 07:00:00 9 5 Sudoeste 15 Oeste 0 -- -- 77
2019-04-30 06:00:00 9.2 5 Sudoeste 11 Sudoeste 0 -- -- 79
2019-04-30 05:00:00 9.9 6 Sudoeste 12 Sudoeste 0 -- -- 76
2019-04-30 04:00:00 11.1 6 Sudoeste 13 Sudoeste 0 -- -- 73
2019-04-30 03:00:00 11.7 5 Sudoeste 13 Sudoeste 0 -- -- 72
2019-04-30 02:00:00 12.8 5 Sudoeste 17 Oeste 0 -- -- 68
2019-04-30 01:00:00 13.8 5 Sudoeste 16 Sudoeste 0 -- -- 63
2019-04-30 00:00:00 14.8 8 Sudoeste 14 Sudoeste 0 -- -- 61
2019-04-29 23:00:00 16.4 3 Sudoeste 13 Sudoeste 0 -- -- 54
2019-04-29 22:00:00 17.9 6 Oeste 22 Noroeste 0 -- -- 47
2019-04-29 21:00:00 19.9 6 Noroeste 19 Norte 0 -- -- 43
2019-04-29 20:00:00 22.3 7 Norte 14 Nordeste 0 -- -- 37
2019-04-29 19:00:00 23.3 7 Norte 19 Oeste 0 -- -- 31
2019-04-29 18:00:00 24.8 11 Noroeste 22 Oeste 0 -- -- 27
2019-04-29 17:00:00 25.7 9 Oeste 17 Oeste 0 -- -- 27
2019-04-29 16:00:00 24.5 8 Oeste 15 Sudoeste 0 -- -- 31
2019-04-29 15:00:00 22.9 4 Oeste 10 Oeste 0 -- -- 29
2019-04-29 14:00:00 21.3 4 Oeste 10 Oeste 0 -- -- 33
2019-04-29 13:00:00 19.2 3 Nordeste 8 Noroeste 0 -- -- 41
2019-04-29 12:00:00 16.7 3 Nordeste 11 Noroeste 0 -- -- 51
2019-04-29 11:00:00 14.3 6 Noroeste 13 Oeste 0 -- -- 58
2019-04-29 10:00:00 11.4 4 Noroeste 9 Noroeste 0 -- -- 72
2019-04-29 09:00:00 9.1 4 Oeste 10 Oeste 0 -- -- 81
2019-04-29 08:00:00 6.9 4 Oeste 6 Oeste 0 -- -- 90
2019-04-29 07:00:00 6.4 3 Noroeste 10 Oeste 0 -- -- 89
2019-04-29 06:00:00 6.9 4 Oeste 9 Noroeste 0 -- -- 88
2019-04-29 05:00:00 7.5 3 Noroeste 9 Oeste 0 -- -- 86
2019-04-29 04:00:00 8.6 3 Noroeste 9 Oeste 0 -- -- 82
2019-04-29 03:00:00 9.4 4 Oeste 8 Sudoeste 0 -- -- 77
2019-04-29 02:00:00 10.6 2 Oeste 10 Sudoeste 0 -- -- 71
2019-04-29 01:00:00 11.8 4 Sudoeste 12 Sur 0 -- -- 68
2019-04-29 00:00:00 13 5 Sur 12 Sur 0 -- -- 67
2019-04-28 23:00:00 14 6 Sudoeste 14 Sudoeste 0 -- -- 59
2019-04-28 22:00:00 15.6 5 Noroeste 14 Noroeste 0 -- -- 54
2019-04-28 21:00:00 17.5 6 Noroeste 16 Norte 0 -- -- 50
2019-04-28 20:00:00 19.8 10 Noroeste 19 Noroeste 0 -- -- 42
2019-04-28 19:00:00 21.2 10 Noroeste 20 Sudoeste 0 -- -- 37
2019-04-28 18:00:00 23 8 Oeste 21 Oeste 0 -- -- 35
2019-04-28 17:00:00 21.9 9 Oeste 21 Oeste 0 -- -- 37
2019-04-28 16:00:00 21.1 11 Oeste 22 Oeste 0 -- -- 36
2019-04-28 15:00:00 19.6 12 Oeste 23 Oeste 0 -- -- 36
2019-04-28 14:00:00 17.9 9 Oeste 20 Oeste 0 -- -- 35
2019-04-28 13:00:00 16.5 8 Oeste 19 Oeste 0 -- -- 42
2019-04-28 12:00:00 14.9 9 Oeste 21 Oeste 0 -- -- 51
2019-04-28 11:00:00 13.2 11 Oeste 23 Sudoeste 0 -- -- 56
2019-04-28 10:00:00 11.7 11 Noroeste 17 Oeste 0 -- -- 64
2019-04-28 09:00:00 10.1 10 Oeste 17 Oeste 0 -- -- 73
2019-04-28 08:00:00 7.4 7 Oeste 13 Oeste 0 -- -- 84
2019-04-28 07:00:00 7.5 5 Oeste 12 Oeste 0 -- -- 83
2019-04-28 06:00:00 8 3 Noroeste 16 Oeste 0 -- -- 81
2019-04-28 05:00:00 9.1 8 Oeste 15 Oeste 0 -- -- 76
2019-04-28 04:00:00 9.8 8 Oeste 15 Oeste 0 -- -- 75
2019-04-28 03:00:00 10.9 10 Oeste 19 Oeste 0 -- -- 69
2019-04-28 02:00:00 11.6 8 Oeste 13 Oeste 0 -- -- 67
2019-04-28 01:00:00 12 4 Noroeste 8 Oeste 0 -- -- 68
2019-04-28 00:00:00 12.2 4 Norte 8 Nordeste 0 -- -- 67
2019-04-27 23:00:00 12.9 5 Nordeste 10 Este 0 -- -- 68
2019-04-27 22:00:00 13.6 2 Sudoeste 7 Sudoeste 0 -- -- 69
2019-04-27 21:00:00 14 3 Nordeste 23 Norte 0 -- -- 66
2019-04-27 20:00:00 15.8 12 Norte 23 Norte 0 -- -- 61
2019-04-27 19:00:00 18 10 Norte 22 Nordeste 0 -- -- 53
2019-04-27 18:00:00 19.2 13 Norte 25 Noroeste 0 -- -- 48
2019-04-27 17:00:00 20.3 8 Noroeste 20 Oeste 0 -- -- 45
2019-04-27 16:00:00 20 10 Noroeste 18 Oeste 0 -- -- 45
2019-04-27 15:00:00 18.3 5 Noroeste 17 Noroeste 0 -- -- 49
2019-04-27 14:00:00 17.4 8 Noroeste 26 Oeste 0 -- -- 53
2019-04-27 13:00:00 17.6 10 Oeste 24 Oeste 0 -- -- 53
2019-04-27 12:00:00 15.7 14 Oeste 24 Oeste 0 -- -- 54
2019-04-27 11:00:00 13.1 11 Oeste 22 Oeste 0 -- -- 67
2019-04-27 10:00:00 9.7 8 Oeste 17 Oeste 0 -- -- 78
2019-04-27 09:00:00 7.3 5 Oeste 11 Oeste 0 -- -- 89
2019-04-27 08:00:00 5.7 4 Oeste 9 Oeste 0 -- -- 95
2019-04-27 07:00:00 5.2 0 Calma 4 Noroeste 0 -- -- 94
2019-04-27 06:00:00 5.5 3 Noroeste 6 Oeste 0 -- -- 93
2019-04-27 05:00:00 6 4 Oeste 5 Oeste 0 -- -- 92
2019-04-27 04:00:00 6.6 0 Calma 4 Sudoeste 0 -- -- 88
2019-04-27 03:00:00 7.2 2 Oeste 10 Sudoeste 0 -- -- 86
2019-04-27 02:00:00 7.8 0 Calma 6 Sudoeste 0 -- -- 83
2019-04-27 01:00:00 8.4 3 Sudoeste 10 Sudoeste 0 -- -- 81
2019-04-27 00:00:00 9.2 4 Sur 15 Sur 0 -- -- 77
2019-04-26 23:00:00 10 6 Sudoeste 20 Sur 0 -- -- 74
2019-04-26 22:00:00 11.9 9 Sudoeste 16 Oeste 0 -- -- 65
2019-04-26 21:00:00 13.2 5 Noroeste 16 Norte 0 -- -- 60
2019-04-26 20:00:00 15.4 8 Noroeste 21 Noroeste 0 -- -- 51
2019-04-26 19:00:00 17.2 9 Noroeste 28 Noroeste 0 -- -- 42
2019-04-26 18:00:00 18.1 14 Noroeste 35 Oeste 0 -- -- 38
2019-04-26 17:00:00 18.6 21 Oeste 39 Oeste 0 -- -- 31
2019-04-26 16:00:00 18.3 20 Oeste 38 Oeste 0 -- -- 34
2019-04-26 15:00:00 16.8 21 Oeste 37 Oeste 0 -- -- 37
2019-04-26 14:00:00 15.7 14 Noroeste 32 Oeste 0 -- -- 46
2019-04-26 13:00:00 14.2 14 Noroeste 35 Oeste 0 -- -- 53
2019-04-26 12:00:00 13 17 Noroeste 34 Oeste 0 -- -- 59
2019-04-26 11:00:00 11.5 15 Noroeste 33 Oeste 0 -- -- 64
2019-04-26 10:00:00 11.4 19 Noroeste 42 Noroeste 0 -- -- 64
2019-04-26 09:00:00 10.9 20 Oeste 37 Oeste 0 -- -- 68
2019-04-26 08:00:00 8.9 15 Noroeste 26 Oeste 0 -- -- 75
2019-04-26 07:00:00 9.3 12 Oeste 26 Oeste 0 -- -- 71
2019-04-26 06:00:00 9.9 13 Oeste 31 Oeste 0 -- -- 69
2019-04-26 05:00:00 10.1 17 Oeste 36 Oeste 0 -- -- 67
2019-04-26 04:00:00 10.2 16 Oeste 32 Oeste 0 -- -- 65
2019-04-26 03:00:00 10.2 18 Oeste 34 Oeste 0 -- -- 62
2019-04-26 02:00:00 10.3 14 Oeste 45 Oeste 0 -- -- 61
2019-04-26 01:00:00 10.3 18 Oeste 35 Oeste 0 -- -- 60
2019-04-26 00:00:00 9.5 14 Oeste 35 Oeste 0 -- -- 60